sensor_id;sensor_type;location;lat;lon;timestamp;pressure;altitude;pressure_sealevel;temperature;humidity
74169;BME280;62523;53.336;83.690;2023-02-13T00:00:28;101264.69;;;-11.59;96.30
74169;BME280;62523;53.336;83.690;2023-02-13T00:05:30;101270.25;;;-11.78;96.81
74169;BME280;62523;53.336;83.690;2023-02-13T00:10:31;101266.94;;;-11.77;96.70
74169;BME280;62523;53.336;83.690;2023-02-13T00:15:32;101248.47;;;-11.88;95.71
74169;BME280;62523;53.336;83.690;2023-02-13T00:20:33;101271.22;;;-11.49;93.25
74169;BME280;62523;53.336;83.690;2023-02-13T00:25:34;101262.13;;;-11.72;91.44
74169;BME280;62523;53.336;83.690;2023-02-13T00:30:35;101259.88;;;-11.81;91.80
74169;BME280;62523;53.336;83.690;2023-02-13T00:35:36;101241.44;;;-11.92;91.47
74169;BME280;62523;53.336;83.690;2023-02-13T00:40:38;101247.38;;;-12.05;90.26
74169;BME280;62523;53.336;83.690;2023-02-13T00:45:39;101250.19;;;-12.27;89.09
74169;BME280;62523;53.336;83.690;2023-02-13T00:50:40;101270.09;;;-12.33;87.39
74169;BME280;62523;53.336;83.690;2023-02-13T00:55:41;101254.13;;;-12.44;86.41
74169;BME280;62523;53.336;83.690;2023-02-13T01:00:43;101273.56;;;-12.44;84.77
74169;BME280;62523;53.336;83.690;2023-02-13T01:05:46;101285.81;;;-12.64;84.03
74169;BME280;62523;53.336;83.690;2023-02-13T01:10:48;101290.72;;;-12.79;84.23
74169;BME280;62523;53.336;83.690;2023-02-13T01:15:50;101298.75;;;-12.72;84.74
74169;BME280;62523;53.336;83.690;2023-02-13T01:20:59;101301.97;;;-12.75;84.78
74169;BME280;62523;53.336;83.690;2023-02-13T01:26:03;101299.75;;;-12.82;84.08
74169;BME280;62523;53.336;83.690;2023-02-13T01:31:04;101304.03;;;-12.94;83.33
74169;BME280;62523;53.336;83.690;2023-02-13T01:36:10;101301.97;;;-12.75;81.52
74169;BME280;62523;53.336;83.690;2023-02-13T01:41:12;101304.53;;;-12.87;82.52
74169;BME280;62523;53.336;83.690;2023-02-13T01:46:38;101311.72;;;-12.93;83.09
74169;BME280;62523;53.336;83.690;2023-02-13T01:51:39;101303.53;;;-12.89;84.59
74169;BME280;62523;53.336;83.690;2023-02-13T01:56:53;101310.88;;;-13.05;83.90
74169;BME280;62523;53.336;83.690;2023-02-13T02:01:55;101310.44;;;-13.11;83.17
74169;BME280;62523;53.336;83.690;2023-02-13T02:07:04;101301.50;;;-13.06;83.19
74169;BME280;62523;53.336;83.690;2023-02-13T02:17:17;101310.59;;;-12.85;78.63
74169;BME280;62523;53.336;83.690;2023-02-13T02:28:08;101307.06;;;-12.87;78.44
74169;BME280;62523;53.336;83.690;2023-02-13T02:33:38;101305.75;;;-12.93;79.57
74169;BME280;62523;53.336;83.690;2023-02-13T02:44:51;101294.31;;;-13.00;79.86
74169;BME280;62523;53.336;83.690;2023-02-13T02:55:55;101287.94;;;-13.19;76.56
74169;BME280;62523;53.336;83.690;2023-02-13T03:01:00;101294.78;;;-13.17;76.12
74169;BME280;62523;53.336;83.690;2023-02-13T03:06:39;101290.66;;;-13.29;75.75
74169;BME280;62523;53.336;83.690;2023-02-13T03:11:48;101291.63;;;-13.27;74.40
74169;BME280;62523;53.336;83.690;2023-02-13T03:17:15;101289.44;;;-13.34;72.68
74169;BME280;62523;53.336;83.690;2023-02-13T03:22:57;101288.25;;;-13.39;73.12
74169;BME280;62523;53.336;83.690;2023-02-13T03:28:31;101291.66;;;-13.50;71.72
74169;BME280;62523;53.336;83.690;2023-02-13T03:34:01;101285.69;;;-13.86;72.47
74169;BME280;62523;53.336;83.690;2023-02-13T03:44:48;101288.31;;;-13.96;72.48
74169;BME280;62523;53.336;83.690;2023-02-13T03:50:11;101277.00;;;-14.02;71.11
74169;BME280;62523;53.336;83.690;2023-02-13T03:55:20;101285.03;;;-13.84;70.32
74169;BME280;62523;53.336;83.690;2023-02-13T04:00:47;101293.84;;;-13.90;69.96
74169;BME280;62523;53.336;83.690;2023-02-13T04:05:55;101283.25;;;-13.96;70.27
74169;BME280;62523;53.336;83.690;2023-02-13T04:11:14;101289.69;;;-14.35;70.36
74169;BME280;62523;53.336;83.690;2023-02-13T04:16:44;101290.66;;;-14.45;70.53
74169;BME280;62523;53.336;83.690;2023-02-13T04:21:50;101283.69;;;-14.48;71.17
74169;BME280;62523;53.336;83.690;2023-02-13T04:26:54;101289.22;;;-14.41;70.62
74169;BME280;62523;53.336;83.690;2023-02-13T04:31:56;101266.41;;;-14.53;70.71
74169;BME280;62523;53.336;83.690;2023-02-13T04:36:57;101277.22;;;-14.56;71.04
74169;BME280;62523;53.336;83.690;2023-02-13T04:41:58;101273.03;;;-14.55;71.36
74169;BME280;62523;53.336;83.690;2023-02-13T04:46:59;101263.88;;;-14.53;71.32
74169;BME280;62523;53.336;83.690;2023-02-13T04:52:00;101272.56;;;-14.50;71.41
74169;BME280;62523;53.336;83.690;2023-02-13T04:57:01;101270.22;;;-14.36;71.37
74169;BME280;62523;53.336;83.690;2023-02-13T05:02:03;101258.59;;;-13.99;70.25
74169;BME280;62523;53.336;83.690;2023-02-13T05:07:04;101254.41;;;-14.10;70.31
74169;BME280;62523;53.336;83.690;2023-02-13T05:12:05;101259.56;;;-14.20;70.86
74169;BME280;62523;53.336;83.690;2023-02-13T05:17:06;101269.16;;;-14.05;70.08
74169;BME280;62523;53.336;83.690;2023-02-13T05:22:08;101261.25;;;-13.97;69.68
74169;BME280;62523;53.336;83.690;2023-02-13T05:27:29;101262.47;;;-13.57;69.08
74169;BME280;62523;53.336;83.690;2023-02-13T05:32:30;101261.78;;;-13.90;69.21
74169;BME280;62523;53.336;83.690;2023-02-13T05:37:31;101262.00;;;-13.75;69.12
74169;BME280;62523;53.336;83.690;2023-02-13T05:42:32;101253.34;;;-13.18;68.29
74169;BME280;62523;53.336;83.690;2023-02-13T05:47:33;101224.97;;;-13.12;67.28
74169;BME280;62523;53.336;83.690;2023-02-13T05:52:34;101246.75;;;-12.66;67.09
74169;BME280;62523;53.336;83.690;2023-02-13T05:57:35;101220.09;;;-12.59;66.48
74169;BME280;62523;53.336;83.690;2023-02-13T06:02:36;101244.34;;;-13.01;66.92
74169;BME280;62523;53.336;83.690;2023-02-13T06:07:37;101212.72;;;-12.81;65.89
74169;BME280;62523;53.336;83.690;2023-02-13T06:12:38;101248.56;;;-13.13;66.75
74169;BME280;62523;53.336;83.690;2023-02-13T06:17:40;101230.28;;;-13.82;68.21
74169;BME280;62523;53.336;83.690;2023-02-13T06:22:41;101233.94;;;-13.78;69.99
74169;BME280;62523;53.336;83.690;2023-02-13T06:27:42;101241.63;;;-13.88;70.56
74169;BME280;62523;53.336;83.690;2023-02-13T06:32:45;101241.19;;;-14.06;70.26
74169;BME280;62523;53.336;83.690;2023-02-13T06:37:48;101252.53;;;-14.01;70.25
74169;BME280;62523;53.336;83.690;2023-02-13T06:42:49;101253.16;;;-14.15;72.33
74169;BME280;62523;53.336;83.690;2023-02-13T06:47:50;101236.13;;;-13.94;71.57
74169;BME280;62523;53.336;83.690;2023-02-13T06:52:52;101249.34;;;-13.87;70.88
74169;BME280;62523;53.336;83.690;2023-02-13T06:57:53;101251.63;;;-14.25;71.47
74169;BME280;62523;53.336;83.690;2023-02-13T07:02:54;101241.03;;;-14.43;72.00
74169;BME280;62523;53.336;83.690;2023-02-13T07:08:00;101242.94;;;-14.05;72.16
74169;BME280;62523;53.336;83.690;2023-02-13T07:13:01;101243.59;;;-13.96;72.66
74169;BME280;62523;53.336;83.690;2023-02-13T07:18:04;101230.06;;;-14.08;73.19
74169;BME280;62523;53.336;83.690;2023-02-13T07:23:05;101228.31;;;-13.74;72.56
74169;BME280;62523;53.336;83.690;2023-02-13T07:28:08;101223.22;;;-14.09;73.34
74169;BME280;62523;53.336;83.690;2023-02-13T07:33:09;101224.72;;;-14.47;74.97
74169;BME280;62523;53.336;83.690;2023-02-13T07:38:10;101222.97;;;-14.59;76.99
74169;BME280;62523;53.336;83.690;2023-02-13T07:43:12;101195.81;;;-14.84;77.78
74169;BME280;62523;53.336;83.690;2023-02-13T07:48:13;101203.41;;;-14.38;76.93
74169;BME280;62523;53.336;83.690;2023-02-13T07:53:14;101203.06;;;-14.43;76.79
74169;BME280;62523;53.336;83.690;2023-02-13T07:58:15;101196.53;;;-14.75;77.43
74169;BME280;62523;53.336;83.690;2023-02-13T08:03:16;101193.16;;;-14.40;76.63
74169;BME280;62523;53.336;83.690;2023-02-13T08:08:17;101197.59;;;-14.02;76.49
74169;BME280;62523;53.336;83.690;2023-02-13T08:13:19;101194.25;;;-14.60;77.79
74169;BME280;62523;53.336;83.690;2023-02-13T08:18:20;101179.50;;;-14.07;75.88
74169;BME280;62523;53.336;83.690;2023-02-13T08:23:21;101181.94;;;-14.55;74.82
74169;BME280;62523;53.336;83.690;2023-02-13T08:28:22;101131.81;;;-14.48;75.47
74169;BME280;62523;53.336;83.690;2023-02-13T08:33:23;101188.31;;;-14.13;74.85
74169;BME280;62523;53.336;83.690;2023-02-13T08:38:25;101183.25;;;-13.78;73.11
74169;BME280;62523;53.336;83.690;2023-02-13T08:43:26;101177.19;;;-13.92;72.53
74169;BME280;62523;53.336;83.690;2023-02-13T08:48:27;101181.91;;;-13.73;73.33
74169;BME280;62523;53.336;83.690;2023-02-13T08:53:29;101176.66;;;-13.76;73.43
74169;BME280;62523;53.336;83.690;2023-02-13T08:58:30;101176.31;;;-13.80;73.70
74169;BME280;62523;53.336;83.690;2023-02-13T09:03:31;101180.28;;;-13.84;74.49
74169;BME280;62523;53.336;83.690;2023-02-13T09:08:34;101161.69;;;-14.20;73.92
74169;BME280;62523;53.336;83.690;2023-02-13T09:13:35;101168.72;;;-14.16;74.26
74169;BME280;62523;53.336;83.690;2023-02-13T09:18:37;101174.78;;;-14.26;75.10
74169;BME280;62523;53.336;83.690;2023-02-13T09:23:39;101176.84;;;-14.44;74.72
74169;BME280;62523;53.336;83.690;2023-02-13T09:28:40;101153.66;;;-14.61;73.83
74169;BME280;62523;53.336;83.690;2023-02-13T09:33:46;101152.53;;;-14.53;73.71
74169;BME280;62523;53.336;83.690;2023-02-13T09:38:52;101172.25;;;-14.02;73.51
74169;BME280;62523;53.336;83.690;2023-02-13T09:49:38;101168.00;;;-13.66;71.28
74169;BME280;62523;53.336;83.690;2023-02-13T09:54:40;101137.81;;;-14.71;73.74
74169;BME280;62523;53.336;83.690;2023-02-13T09:59:46;101164.75;;;-14.59;74.27
74169;BME280;62523;53.336;83.690;2023-02-13T10:15:41;101172.22;;;-14.73;76.21
74169;BME280;62523;53.336;83.690;2023-02-13T10:20:55;101181.63;;;-14.82;77.10
74169;BME280;62523;53.336;83.690;2023-02-13T10:26:03;101178.63;;;-15.00;78.05
74169;BME280;62523;53.336;83.690;2023-02-13T10:31:12;101194.97;;;-15.07;78.39
74169;BME280;62523;53.336;83.690;2023-02-13T10:36:27;101181.22;;;-15.10;78.80
74169;BME280;62523;53.336;83.690;2023-02-13T10:58:00;101174.88;;;-15.05;79.01
74169;BME280;62523;53.336;83.690;2023-02-13T11:03:03;101169.88;;;-15.15;79.38
74169;BME280;62523;53.336;83.690;2023-02-13T11:08:25;101170.06;;;-15.24;79.96
74169;BME280;62523;53.336;83.690;2023-02-13T11:13:29;101176.69;;;-15.36;80.56
74169;BME280;62523;53.336;83.690;2023-02-13T11:18:33;101184.47;;;-15.45;82.10
74169;BME280;62523;53.336;83.690;2023-02-13T11:23:42;101176.44;;;-15.61;83.59
74169;BME280;62523;53.336;83.690;2023-02-13T11:28:48;101151.84;;;-15.86;84.58
74169;BME280;62523;53.336;83.690;2023-02-13T11:33:51;101185.69;;;-15.84;86.47
74169;BME280;62523;53.336;83.690;2023-02-13T11:39:44;101194.06;;;-15.95;87.88
74169;BME280;62523;53.336;83.690;2023-02-13T11:44:27;101186.00;;;-16.01;89.25
74169;BME280;62523;53.336;83.690;2023-02-13T11:49:37;101178.72;;;-16.19;90.60
74169;BME280;62523;53.336;83.690;2023-02-13T11:54:42;101177.22;;;-16.17;90.86
74169;BME280;62523;53.336;83.690;2023-02-13T11:59:46;101193.34;;;-16.15;91.64
74169;BME280;62523;53.336;83.690;2023-02-13T12:26:27;101198.19;;;-16.59;94.56
74169;BME280;62523;53.336;83.690;2023-02-13T12:31:38;101200.09;;;-16.56;94.18
74169;BME280;62523;53.336;83.690;2023-02-13T12:36:53;101194.03;;;-16.58;94.65
74169;BME280;62523;53.336;83.690;2023-02-13T12:47:36;101181.44;;;-16.68;94.24
74169;BME280;62523;53.336;83.690;2023-02-13T12:53:15;101189.13;;;-16.67;94.53
74169;BME280;62523;53.336;83.690;2023-02-13T13:25:31;101176.41;;;-16.99;96.86
74169;BME280;62523;53.336;83.690;2023-02-13T13:30:36;101176.44;;;-17.09;96.95
74169;BME280;62523;53.336;83.690;2023-02-13T13:35:38;101163.31;;;-17.16;96.95
74169;BME280;62523;53.336;83.690;2023-02-13T13:41:00;101136.22;;;-17.28;97.51
74169;BME280;62523;53.336;83.690;2023-02-13T13:51:23;101166.47;;;-17.18;97.70
74169;BME280;62523;53.336;83.690;2023-02-13T13:56:25;101145.31;;;-17.20;97.87
74169;BME280;62523;53.336;83.690;2023-02-13T14:01:29;101163.28;;;-17.26;98.34
74169;BME280;62523;53.336;83.690;2023-02-13T14:11:46;101141.50;;;-17.25;98.08
74169;BME280;62523;53.336;83.690;2023-02-13T14:16:48;101150.09;;;-17.13;98.15
74169;BME280;62523;53.336;83.690;2023-02-13T14:21:49;101152.47;;;-17.15;97.72
74169;BME280;62523;53.336;83.690;2023-02-13T14:26:57;101126.00;;;-17.30;97.64
74169;BME280;62523;53.336;83.690;2023-02-13T14:32:12;101143.88;;;-17.27;97.08
74169;BME280;62523;53.336;83.690;2023-02-13T14:37:21;101144.53;;;-17.40;97.27
74169;BME280;62523;53.336;83.690;2023-02-13T14:42:30;101138.97;;;-17.46;97.07
74169;BME280;62523;53.336;83.690;2023-02-13T14:47:40;101146.75;;;-17.43;96.98
74169;BME280;62523;53.336;83.690;2023-02-13T14:52:44;101132.00;;;-17.59;96.86
74169;BME280;62523;53.336;83.690;2023-02-13T14:57:50;101132.03;;;-17.38;97.18
74169;BME280;62523;53.336;83.690;2023-02-13T15:03:45;101115.66;;;-17.43;96.22
74169;BME280;62523;53.336;83.690;2023-02-13T15:08:33;101123.56;;;-17.49;95.93
74169;BME280;62523;53.336;83.690;2023-02-13T15:13:36;101136.13;;;-17.59;95.93
74169;BME280;62523;53.336;83.690;2023-02-13T15:18:44;101120.69;;;-17.43;96.12
74169;BME280;62523;53.336;83.690;2023-02-13T15:23:52;101124.34;;;-17.50;95.76
74169;BME280;62523;53.336;83.690;2023-02-13T15:28:59;101128.94;;;-17.75;95.57
74169;BME280;62523;53.336;83.690;2023-02-13T15:34:01;101117.28;;;-17.54;96.52
74169;BME280;62523;53.336;83.690;2023-02-13T15:39:03;101123.66;;;-17.68;96.66
74169;BME280;62523;53.336;83.690;2023-02-13T15:44:16;101115.34;;;-17.77;96.76
74169;BME280;62523;53.336;83.690;2023-02-13T15:49:24;101113.69;;;-17.77;97.05
74169;BME280;62523;53.336;83.690;2023-02-13T15:54:28;101104.53;;;-17.76;96.98
74169;BME280;62523;53.336;83.690;2023-02-13T15:59:34;101109.16;;;-17.81;97.81
74169;BME280;62523;53.336;83.690;2023-02-13T16:04:39;101070.13;;;-18.06;97.08
74169;BME280;62523;53.336;83.690;2023-02-13T16:09:41;101087.50;;;-17.99;97.31
74169;BME280;62523;53.336;83.690;2023-02-13T16:14:50;101106.56;;;-17.82;97.14
74169;BME280;62523;53.336;83.690;2023-02-13T16:19:58;101111.69;;;-17.91;96.76
74169;BME280;62523;53.336;83.690;2023-02-13T16:25:08;101109.53;;;-17.97;97.27
74169;BME280;62523;53.336;83.690;2023-02-13T16:35:34;101111.91;;;-17.98;97.99
74169;BME280;62523;53.336;83.690;2023-02-13T16:40:40;101100.50;;;-17.84;97.67
74169;BME280;62523;53.336;83.690;2023-02-13T16:45:41;101112.66;;;-17.99;97.60
74169;BME280;62523;53.336;83.690;2023-02-13T16:50:43;101108.91;;;-17.94;97.39
74169;BME280;62523;53.336;83.690;2023-02-13T16:55:44;101117.41;;;-18.12;97.61
74169;BME280;62523;53.336;83.690;2023-02-13T17:00:49;101114.13;;;-18.41;97.65
74169;BME280;62523;53.336;83.690;2023-02-13T17:05:50;101110.59;;;-18.62;97.45
74169;BME280;62523;53.336;83.690;2023-02-13T17:11:06;101114.06;;;-18.51;98.56
74169;BME280;62523;53.336;83.690;2023-02-13T17:16:08;101107.59;;;-18.87;98.73
74169;BME280;62523;53.336;83.690;2023-02-13T17:21:10;101119.47;;;-18.94;99.27
74169;BME280;62523;53.336;83.690;2023-02-13T17:26:11;101125.09;;;-18.97;99.32
74169;BME280;62523;53.336;83.690;2023-02-13T17:31:12;101117.38;;;-19.36;98.79
74169;BME280;62523;53.336;83.690;2023-02-13T17:36:13;101111.63;;;-19.35;99.64
74169;BME280;62523;53.336;83.690;2023-02-13T17:41:15;101130.84;;;-19.45;99.57
74169;BME280;62523;53.336;83.690;2023-02-13T17:46:16;101118.75;;;-19.49;99.67
74169;BME280;62523;53.336;83.690;2023-02-13T17:51:17;101127.81;;;-19.04;100.00
74169;BME280;62523;53.336;83.690;2023-02-13T17:56:18;101121.78;;;-19.34;100.00
74169;BME280;62523;53.336;83.690;2023-02-13T18:01:19;101126.59;;;-19.73;100.00
74169;BME280;62523;53.336;83.690;2023-02-13T18:06:21;101139.84;;;-19.74;99.87
74169;BME280;62523;53.336;83.690;2023-02-13T18:11:22;101139.34;;;-19.62;100.00
74169;BME280;62523;53.336;83.690;2023-02-13T18:16:25;101143.97;;;-19.38;100.00
74169;BME280;62523;53.336;83.690;2023-02-13T18:21:26;101131.63;;;-19.82;99.87
74169;BME280;62523;53.336;83.690;2023-02-13T18:26:27;101135.75;;;-19.74;99.85
74169;BME280;62523;53.336;83.690;2023-02-13T18:31:29;101122.38;;;-19.36;100.00
74169;BME280;62523;53.336;83.690;2023-02-13T18:36:30;101122.38;;;-19.64;100.00
74169;BME280;62523;53.336;83.690;2023-02-13T18:41:31;101133.44;;;-19.98;100.00
74169;BME280;62523;53.336;83.690;2023-02-13T18:46:32;101148.19;;;-19.93;100.00
74169;BME280;62523;53.336;83.690;2023-02-13T18:51:33;101136.31;;;-19.76;100.00
74169;BME280;62523;53.336;83.690;2023-02-13T18:56:34;101144.03;;;-19.56;100.00
74169;BME280;62523;53.336;83.690;2023-02-13T19:01:36;101140.50;;;-19.86;100.00
74169;BME280;62523;53.336;83.690;2023-02-13T19:06:41;101130.41;;;-19.77;100.00
74169;BME280;62523;53.336;83.690;2023-02-13T19:11:42;101124.91;;;-19.36;100.00
74169;BME280;62523;53.336;83.690;2023-02-13T19:16:44;101135.31;;;-19.23;100.00
74169;BME280;62523;53.336;83.690;2023-02-13T19:21:45;101119.00;;;-19.09;100.00
74169;BME280;62523;53.336;83.690;2023-02-13T19:26:46;101116.75;;;-19.34;100.00
74169;BME280;62523;53.336;83.690;2023-02-13T19:31:47;101113.66;;;-19.59;100.00
74169;BME280;62523;53.336;83.690;2023-02-13T19:36:48;101127.38;;;-19.64;100.00
74169;BME280;62523;53.336;83.690;2023-02-13T19:41:49;101121.25;;;-19.76;100.00
74169;BME280;62523;53.336;83.690;2023-02-13T19:46:50;101135.47;;;-19.86;100.00
74169;BME280;62523;53.336;83.690;2023-02-13T19:51:51;101131.31;;;-19.49;100.00
74169;BME280;62523;53.336;83.690;2023-02-13T19:56:52;101131.03;;;-19.52;100.00
74169;BME280;62523;53.336;83.690;2023-02-13T20:01:59;101119.50;;;-19.50;100.00
74169;BME280;62523;53.336;83.690;2023-02-13T20:07:00;101126.50;;;-19.65;100.00
74169;BME280;62523;53.336;83.690;2023-02-13T20:12:03;101134.50;;;-20.05;100.00
74169;BME280;62523;53.336;83.690;2023-02-13T20:17:04;101133.50;;;-20.16;100.00
74169;BME280;62523;53.336;83.690;2023-02-13T20:22:05;101134.84;;;-20.46;100.00
74169;BME280;62523;53.336;83.690;2023-02-13T20:27:06;101139.63;;;-20.75;100.00
74169;BME280;62523;53.336;83.690;2023-02-13T20:32:07;101137.25;;;-20.65;100.00
74169;BME280;62523;53.336;83.690;2023-02-13T20:37:08;101132.84;;;-20.93;100.00
74169;BME280;62523;53.336;83.690;2023-02-13T20:42:09;101136.97;;;-21.02;100.00
74169;BME280;62523;53.336;83.690;2023-02-13T20:47:10;101132.81;;;-21.02;100.00
74169;BME280;62523;53.336;83.690;2023-02-13T20:52:12;101133.84;;;-21.17;100.00
74169;BME280;62523;53.336;83.690;2023-02-13T20:57:13;101124.44;;;-21.11;100.00
74169;BME280;62523;53.336;83.690;2023-02-13T21:02:15;101127.78;;;-21.19;100.00
74169;BME280;62523;53.336;83.690;2023-02-13T21:07:18;101130.28;;;-21.19;99.84
74169;BME280;62523;53.336;83.690;2023-02-13T21:12:19;101135.09;;;-21.38;98.65
74169;BME280;62523;53.336;83.690;2023-02-13T21:17:20;101127.50;;;-21.22;98.35
74169;BME280;62523;53.336;83.690;2023-02-13T21:22:21;101131.41;;;-21.51;98.65
74169;BME280;62523;53.336;83.690;2023-02-13T21:27:22;101140.84;;;-21.39;97.76
74169;BME280;62523;53.336;83.690;2023-02-13T21:32:23;101134.78;;;-21.67;97.16
74169;BME280;62523;53.336;83.690;2023-02-13T21:37:25;101141.56;;;-21.40;97.44
74169;BME280;62523;53.336;83.690;2023-02-13T21:42:26;101137.88;;;-21.53;97.88
74169;BME280;62523;53.336;83.690;2023-02-13T21:47:27;101140.97;;;-21.55;97.12
74169;BME280;62523;53.336;83.690;2023-02-13T21:52:28;101131.28;;;-21.52;97.10
74169;BME280;62523;53.336;83.690;2023-02-13T21:57:29;101131.31;;;-21.43;97.52
74169;BME280;62523;53.336;83.690;2023-02-13T22:02:30;101138.19;;;-21.58;96.66
74169;BME280;62523;53.336;83.690;2023-02-13T22:07:31;101145.84;;;-21.57;96.80
74169;BME280;62523;53.336;83.690;2023-02-13T22:12:52;101147.63;;;-21.30;98.02
74169;BME280;62523;53.336;83.690;2023-02-13T22:17:53;101054.94;;;-21.91;98.15
74169;BME280;62523;53.336;83.690;2023-02-13T22:22:54;101146.66;;;-21.74;97.41
74169;BME280;62523;53.336;83.690;2023-02-13T22:27:55;101156.16;;;-21.87;97.42
74169;BME280;62523;53.336;83.690;2023-02-13T22:32:56;101143.66;;;-21.45;97.81
74169;BME280;62523;53.336;83.690;2023-02-13T22:37:59;101131.09;;;-21.96;97.78
74169;BME280;62523;53.336;83.690;2023-02-13T22:43:00;101154.31;;;-21.63;98.17
74169;BME280;62523;53.336;83.690;2023-02-13T22:48:01;101156.25;;;-21.94;97.92
74169;BME280;62523;53.336;83.690;2023-02-13T22:53:03;101155.00;;;-22.06;97.97
74169;BME280;62523;53.336;83.690;2023-02-13T22:58:04;101150.84;;;-22.23;98.42
74169;BME280;62523;53.336;83.690;2023-02-13T23:03:05;101143.84;;;-21.77;99.32
74169;BME280;62523;53.336;83.690;2023-02-13T23:08:07;101162.44;;;-22.15;98.40
74169;BME280;62523;53.336;83.690;2023-02-13T23:13:09;101146.84;;;-22.21;99.42
74169;BME280;62523;53.336;83.690;2023-02-13T23:18:10;101177.22;;;-22.34;99.07
74169;BME280;62523;53.336;83.690;2023-02-13T23:23:14;101181.47;;;-22.33;99.82
74169;BME280;62523;53.336;83.690;2023-02-13T23:28:15;101176.84;;;-22.46;100.00
74169;BME280;62523;53.336;83.690;2023-02-13T23:33:16;101186.59;;;-22.40;99.91
74169;BME280;62523;53.336;83.690;2023-02-13T23:38:17;101184.44;;;-22.53;99.33
74169;BME280;62523;53.336;83.690;2023-02-13T23:43:18;101176.47;;;-22.58;99.32
74169;BME280;62523;53.336;83.690;2023-02-13T23:48:20;101179.84;;;-22.57;98.94
74169;BME280;62523;53.336;83.690;2023-02-13T23:53:21;101142.53;;;-22.56;99.80
74169;BME280;62523;53.336;83.690;2023-02-13T23:58:22;101138.84;;;-22.59;99.27
